Alabama A and M, Alabama
Current Conditions -  °F | °C
As of 6:15 AM on Tuesday 27 Jan 2015 (Local Time) from KMDQ Reporting Station
Overcast Overcast  
Wind Chill: 31°   Ceiling: 6000
Heat Index: 36°   Visibility: 10mi
Dew Point: 30°   Wind: 6mph
Humidity: 81%   Direction: 300°WNW
Pressure: 29.93"   Gusts: NA
Location:  34.7869°N, 86.5719°W
Report Text: KMDQ 271215Z AUTO 30005KT 10SM OVC060 02/M01 A2993 RMK AO2
Loading
Personal Weather Stations






























Interactive Weather Map New forecast layout! Learn more

10-Day Weather Forecast

Advertisements
Track Severe Weather on mobile